Time;durP1;ratioP1;P1;durP2;ratioP2;P2;SDS_P1;SDS_P2;PMS_P1;PMS_P2;Temp;Humidity;BMP_temperature;BMP_pressure;BME280_temperature;BME280_humidity;BME280_pressure;Samples;Min_cycle;Max_cycle;Signal;HPM_P1;HPM_P2
2022/08/05 00:01:32;;;;;;;6.73;4.10;;;25.80;13.90;;;;;;5069891;28;20473;-62
2022/08/05 00:03:59;;;;;;;5.83;4.10;;;25.70;13.80;;;;;;5063184;28;20479;-60
2022/08/05 00:06:27;;;;;;;7.60;4.80;;;25.70;13.90;;;;;;5064241;28;20489;-61
2022/08/05 00:08:54;;;;;;;6.77;4.50;;;25.70;13.90;;;;;;5068797;28;20461;-62
2022/08/05 00:11:21;;;;;;;6.40;4.37;;;25.70;13.90;;;;;;5068295;28;20536;-61
2022/08/05 00:13:47;;;;;;;6.00;4.30;;;25.70;13.80;;;;;;5067621;28;20485;-60
2022/08/05 00:16:15;;;;;;;7.10;4.90;;;25.60;13.80;;;;;;5068268;28;20455;-59
2022/08/05 00:18:44;;;;;;;7.43;4.10;;;25.50;14.10;;;;;;5064828;28;20514;-61
2022/08/05 00:21:11;;;;;;;7.93;4.20;;;25.40;14.10;;;;;;5063045;28;20464;-60
2022/08/05 00:23:41;;;;;;;7.50;4.83;;;25.50;13.80;;;;;;5064069;28;20488;-59
2022/08/05 00:26:08;;;;;;;7.80;4.57;;;25.40;13.80;;;;;;5067868;28;20488;-61
2022/08/05 00:28:36;;;;;;;6.63;4.53;;;25.40;13.80;;;;;;5068271;28;20473;-61
2022/08/05 00:31:03;;;;;;;7.70;4.60;;;25.40;13.90;;;;;;5067583;28;20480;-59
2022/08/05 00:33:30;;;;;;;6.60;4.43;;;25.50;13.60;;;;;;5075315;28;20481;-58
2022/08/05 00:35:57;;;;;;;7.50;4.57;;;25.50;13.40;;;;;;5076566;28;20836;-62
2022/08/05 00:38:24;;;;;;;5.47;4.00;;;25.60;13.30;;;;;;5072400;28;21172;-60
2022/08/05 00:40:55;;;;;;;6.63;4.30;;;25.60;13.10;;;;;;5071842;28;21093;-61
2022/08/05 00:43:22;;;;;;;6.10;4.50;;;25.60;12.90;;;;;;5071219;28;20473;-62
2022/08/05 00:45:49;;;;;;;6.27;4.10;;;25.60;12.90;;;;;;5069160;28;20492;-60
2022/08/05 00:48:18;;;;;;;7.80;5.07;;;25.50;13.10;;;;;;5070250;28;20472;-60
2022/08/05 00:50:47;;;;;;;5.63;3.80;;;25.50;13.20;;;;;;5070545;28;21011;-60
2022/08/05 00:53:16;;;;;;;5.70;4.10;;;25.50;13.40;;;;;;5071430;28;20996;-60
2022/08/05 00:55:43;;;;;;;8.00;4.63;;;25.50;13.60;;;;;;5069472;28;20464;-60
2022/08/05 00:58:12;;;;;;;6.63;4.30;;;25.40;13.90;;;;;;5069742;28;20547;-60
2022/08/05 01:00:40;;;;;;;8.47;4.50;;;25.40;14.20;;;;;;5070950;28;20911;-60
2022/08/05 01:03:07;;;;;;;5.70;4.40;;;25.40;14.50;;;;;;5070690;28;20480;-60
2022/08/05 01:05:34;;;;;;;8.23;4.87;;;25.40;13.80;;;;;;5071158;28;20481;-60
2022/08/05 01:08:02;;;;;;;7.70;4.80;;;25.30;14.00;;;;;;5072612;28;20544;-62
2022/08/05 01:10:35;;;;;;;8.70;4.17;;;25.40;14.00;;;;;;5071830;28;20544;-60
2022/08/05 01:13:09;;;;;;;6.20;4.40;;;25.40;13.90;;;;;;5069649;28;20571;-61
2022/08/05 01:15:42;;;;;;;6.63;4.03;;;25.30;14.00;;;;;;5065548;28;20472;-60
2022/08/05 01:18:15;;;;;;;6.50;4.63;;;25.30;14.00;;;;;;5064973;28;20461;-60
2022/08/05 01:20:51;;;;;;;7.50;4.67;;;25.20;14.20;;;;;;5070630;28;21132;-62
2022/08/05 01:23:32;;;;;;;6.57;4.80;;;25.00;14.60;;;;;;5069252;28;20473;-60
2022/08/05 01:26:29;;;;;;;11.33;5.17;;;25.00;15.00;;;;;;5067332;28;20519;-60
2022/08/05 01:29:01;;;;;;;7.70;5.10;;;24.80;15.60;;;;;;5064268;28;20457;-60
2022/08/05 01:31:34;;;;;;;6.90;5.40;;;24.70;16.30;;;;;;5067870;28;20477;-60
2022/08/05 01:34:07;;;;;;;9.90;5.87;;;24.60;16.70;;;;;;5063100;28;20469;-61
2022/08/05 01:36:39;;;;;;;6.80;5.37;;;24.50;17.20;;;;;;5067384;28;20464;-60
2022/08/05 01:39:06;;;;;;;6.57;5.20;;;24.50;17.50;;;;;;5069509;28;20461;-61
2022/08/05 01:41:35;;;;;;;7.00;5.20;;;24.40;17.70;;;;;;5069580;28;20806;-62
2022/08/05 01:44:06;;;;;;;6.83;5.30;;;24.30;18.40;;;;;;5069596;28;20516;-61
2022/08/05 01:46:34;;;;;;;9.13;5.40;;;24.20;17.90;;;;;;5063581;28;20469;-60
2022/08/05 01:49:02;;;;;;;7.10;4.90;;;24.20;18.00;;;;;;5065547;28;20487;-60
2022/08/05 01:51:34;;;;;;;9.10;5.83;;;24.10;18.00;;;;;;5067846;28;20469;-60
2022/08/05 01:54:02;;;;;;;7.83;5.57;;;24.10;18.20;;;;;;5068905;28;20485;-59
2022/08/05 01:56:32;;;;;;;7.47;5.63;;;24.10;18.20;;;;;;5068706;28;20891;-60
2022/08/05 01:59:00;;;;;;;6.73;4.83;;;24.10;18.40;;;;;;5066736;28;20468;-59
2022/08/05 02:01:31;;;;;;;7.63;5.53;;;24.10;18.40;;;;;;5068349;28;20477;-60
2022/08/05 02:03:59;;;;;;;7.20;5.00;;;24.00;18.40;;;;;;5066227;28;20567;-61
2022/08/05 02:06:26;;;;;;;7.43;5.07;;;24.00;18.40;;;;;;5068019;28;20480;-61
2022/08/05 02:08:54;;;;;;;7.30;5.70;;;23.90;18.40;;;;;;5071968;28;20473;-60
2022/08/05 02:11:23;;;;;;;7.60;5.63;;;23.90;18.30;;;;;;5071057;28;20496;-59
2022/08/05 02:13:54;;;;;;;7.03;5.13;;;23.90;18.00;;;;;;5067802;28;20511;-60
2022/08/05 02:16:24;;;;;;;7.37;5.10;;;23.90;17.90;;;;;;5068541;28;20983;-61
2022/08/05 02:18:55;;;;;;;6.83;5.00;;;23.90;18.00;;;;;;5067138;28;20464;-60
2022/08/05 02:21:26;;;;;;;10.33;6.20;;;23.80;18.00;;;;;;5067129;28;20464;-60
2022/08/05 02:23:59;;;;;;;8.17;5.07;;;23.80;18.10;;;;;;5068742;28;20488;-61
2022/08/05 02:26:32;;;;;;;16.10;5.73;;;23.80;18.20;;;;;;5067289;28;20481;-61
2022/08/05 02:29:01;;;;;;;7.30;4.70;;;23.70;18.20;;;;;;5068059;28;20464;-61
2022/08/05 02:31:31;;;;;;;7.17;4.83;;;23.70;18.10;;;;;;5066176;28;20466;-61
2022/08/05 02:34:03;;;;;;;6.00;4.60;;;23.70;18.20;;;;;;5064511;28;20489;-60
2022/08/05 02:36:32;;;;;;;7.00;4.93;;;23.60;18.50;;;;;;5067819;28;20461;-61
2022/08/05 02:39:01;;;;;;;6.33;5.30;;;23.50;18.80;;;;;;5066796;28;20457;-59
2022/08/05 02:41:30;;;;;;;7.03;5.27;;;23.50;19.30;;;;;;5067845;28;20568;-61
2022/08/05 02:43:58;;;;;;;9.87;5.13;;;23.60;19.30;;;;;;5067258;28;20481;-60
2022/08/05 02:46:26;;;;;;;8.40;5.60;;;23.60;19.80;;;;;;5067330;28;20480;-60
2022/08/05 02:48:54;;;;;;;8.50;6.23;;;23.50;19.60;;;;;;5069086;28;20488;-62
2022/08/05 02:51:24;;;;;;;9.20;5.47;;;23.40;20.00;;;;;;5069876;28;20958;-61
2022/08/05 02:53:51;;;;;;;7.00;5.07;;;23.30;20.80;;;;;;5069090;28;21007;-61
2022/08/05 02:56:19;;;;;;;9.90;4.70;;;23.30;20.50;;;;;;5069007;28;20953;-60
2022/08/05 02:58:46;;;;;;;9.07;5.40;;;23.20;20.50;;;;;;5067959;28;20477;-60
2022/08/05 03:01:19;;;;;;;9.03;5.37;;;23.10;20.90;;;;;;5069106;28;20538;-61
2022/08/05 03:03:49;;;;;;;10.07;5.97;;;23.10;20.90;;;;;;5066578;28;20481;-62
2022/08/05 03:06:16;;;;;;;10.50;5.67;;;23.10;21.00;;;;;;5068790;28;20572;-60
2022/08/05 03:08:45;;;;;;;10.93;6.83;;;23.10;20.80;;;;;;5068735;28;20453;-60
2022/08/05 03:11:19;;;;;;;9.33;6.40;;;23.10;20.60;;;;;;5068594;28;20468;-64
2022/08/05 03:13:46;;;;;;;8.07;5.97;;;23.10;20.50;;;;;;5063751;28;20476;-59
2022/08/05 03:16:13;;;;;;;9.00;6.20;;;23.00;20.50;;;;;;5062360;28;20816;-66
2022/08/05 03:18:40;;;;;;;8.83;5.33;;;23.00;21.00;;;;;;5069346;28;20445;-60
2022/08/05 03:21:07;;;;;;;10.57;5.53;;;23.00;20.80;;;;;;5069330;28;20459;-61
2022/08/05 03:23:35;;;;;;;10.97;6.13;;;23.00;20.50;;;;;;5069038;28;20473;-62
2022/08/05 03:26:04;;;;;;;10.77;5.57;;;22.90;20.60;;;;;;5066707;28;21069;-60
2022/08/05 03:28:31;;;;;;;11.20;6.23;;;22.90;20.70;;;;;;5059954;28;20462;-60
2022/08/05 03:30:59;;;;;;;8.00;5.20;;;22.90;20.90;;;;;;5064208;28;20473;-62
2022/08/05 03:33:27;;;;;;;8.50;5.50;;;22.80;21.20;;;;;;5067716;28;20484;-61
2022/08/05 03:35:55;;;;;;;7.20;5.70;;;22.80;21.20;;;;;;5065664;28;20457;-60
2022/08/05 03:38:23;;;;;;;6.87;4.70;;;22.80;21.40;;;;;;5066652;28;20510;-61
2022/08/05 03:40:49;;;;;;;9.17;6.60;;;22.80;21.40;;;;;;5066151;28;21009;-61
2022/08/05 03:43:18;;;;;;;7.90;4.97;;;22.80;21.20;;;;;;5067447;28;20476;-62
2022/08/05 03:45:44;;;;;;;6.80;4.67;;;22.80;20.70;;;;;;5070639;28;20456;-61
2022/08/05 03:48:11;;;;;;;8.30;5.57;;;22.90;20.50;;;;;;5069151;28;20461;-61
2022/08/05 03:50:44;;;;;;;9.23;5.33;;;23.00;20.50;;;;;;5068222;28;20465;-61
2022/08/05 03:53:15;;;;;;;7.10;5.07;;;23.10;20.60;;;;;;5067578;28;20506;-60
2022/08/05 03:55:50;;;;;;;6.50;4.97;;;23.10;20.60;;;;;;5066782;28;20465;-61
2022/08/05 03:58:20;;;;;;;11.30;6.67;;;23.10;20.50;;;;;;5062039;28;20444;-61
2022/08/05 04:00:49;;;;;;;10.90;4.87;;;23.20;21.10;;;;;;5066773;28;20823;-59
2022/08/05 04:03:17;;;;;;;9.07;6.00;;;23.20;20.20;;;;;;5060261;28;20476;-61
2022/08/05 04:05:44;;;;;;;7.37;5.40;;;23.30;20.20;;;;;;5067824;28;20445;-61
2022/08/05 04:08:12;;;;;;;11.37;5.27;;;23.30;20.10;;;;;;5064152;28;20565;-67
2022/08/05 04:10:39;;;;;;;8.63;5.03;;;23.40;20.00;;;;;;5064666;28;20469;-66
2022/08/05 04:13:07;;;;;;;11.90;5.53;;;23.50;20.10;;;;;;5069616;28;20484;-66
2022/08/05 04:15:35;;;;;;;9.60;4.80;;;23.50;20.00;;;;;;5069907;28;20555;-66
2022/08/05 04:18:03;;;;;;;7.47;5.27;;;23.60;19.90;;;;;;5062275;28;20466;-66
2022/08/05 04:20:30;;;;;;;10.00;5.50;;;23.70;19.60;;;;;;5057285;28;21019;-66
2022/08/05 04:22:56;;;;;;;15.07;5.10;;;23.70;19.20;;;;;;5063925;28;20572;-66
2022/08/05 04:25:24;;;;;;;10.87;5.10;;;23.80;19.00;;;;;;5067480;28;20479;-68
2022/08/05 04:27:51;;;;;;;10.77;5.80;;;23.90;19.10;;;;;;5064267;28;20481;-67
2022/08/05 04:30:17;;;;;;;8.27;4.47;;;23.90;18.90;;;;;;5063568;28;20457;-67
2022/08/05 04:32:45;;;;;;;9.00;4.60;;;23.90;18.90;;;;;;5061924;28;20492;-68
2022/08/05 04:35:12;;;;;;;12.03;4.47;;;24.00;18.70;;;;;;5064823;28;20456;-66
2022/08/05 04:37:39;;;;;;;7.20;4.33;;;24.00;18.60;;;;;;5065845;28;20527;-65
2022/08/05 04:40:07;;;;;;;8.40;4.80;;;24.10;18.70;;;;;;5067022;28;20457;-66
2022/08/05 04:42:34;;;;;;;7.00;3.40;;;24.20;18.80;;;;;;5064447;28;20513;-66
2022/08/05 04:45:00;;;;;;;8.87;4.97;;;24.20;18.80;;;;;;5061847;28;20467;-60
2022/08/05 04:47:27;;;;;;;7.00;4.10;;;24.20;18.70;;;;;;5066618;28;20480;-62
2022/08/05 04:49:55;;;;;;;11.43;4.70;;;24.30;18.50;;;;;;5064780;28;20823;-62
2022/08/05 04:52:22;;;;;;;7.70;4.27;;;24.30;18.50;;;;;;5067934;28;20963;-62
2022/08/05 04:54:49;;;;;;;7.60;4.57;;;24.40;18.40;;;;;;5064820;28;20825;-63
2022/08/05 04:57:15;;;;;;;7.03;4.40;;;24.40;18.50;;;;;;5066182;28;20449;-62
2022/08/05 04:59:42;;;;;;;8.07;4.30;;;24.50;18.40;;;;;;5065004;28;20944;-61
2022/08/05 05:02:09;;;;;;;6.27;3.70;;;24.50;18.30;;;;;;5060239;28;20561;-61
2022/08/05 05:04:36;;;;;;;10.70;4.47;;;24.50;18.10;;;;;;5064211;28;20488;-61
2022/08/05 05:07:04;;;;;;;13.83;4.93;;;24.60;17.80;;;;;;5063772;28;20489;-63
2022/08/05 05:09:31;;;;;;;6.80;3.80;;;24.70;17.70;;;;;;5065420;28;20452;-62
2022/08/05 05:11:57;;;;;;;8.23;4.07;;;24.70;17.50;;;;;;5062700;28;20977;-64
2022/08/05 05:14:24;;;;;;;12.50;5.23;;;24.80;17.30;;;;;;5066337;28;20484;-62
2022/08/05 05:16:51;;;;;;;8.17;4.60;;;24.90;17.40;;;;;;5062057;28;20465;-62
2022/08/05 05:19:18;;;;;;;8.50;4.50;;;24.90;17.30;;;;;;5062281;28;20449;-64
2022/08/05 05:21:45;;;;;;;9.53;4.40;;;25.10;16.90;;;;;;5067638;28;20453;-62
2022/08/05 05:24:14;;;;;;;6.97;4.07;;;25.20;16.70;;;;;;5067035;28;20489;-63
2022/08/05 05:26:40;;;;;;;8.70;3.93;;;25.40;16.40;;;;;;5068883;28;20485;-61
2022/08/05 05:29:07;;;;;;;6.53;3.60;;;25.80;15.80;;;;;;5066287;28;20453;-62
2022/08/05 05:31:34;;;;;;;9.13;3.70;;;26.50;14.80;;;;;;5061613;28;20481;-62
2022/08/05 05:34:00;;;;;;;7.73;3.60;;;27.60;13.40;;;;;;5066173;28;21110;-62
2022/08/05 05:36:27;;;;;;;6.70;3.87;;;28.30;11.40;;;;;;5065651;28;20449;-62
2022/08/05 05:38:54;;;;;;;7.33;3.40;;;28.90;9.90;;;;;;5064531;28;20453;-62
2022/08/05 05:41:22;;;;;;;6.60;3.60;;;29.40;9.20;;;;;;5065303;28;20453;-62
2022/08/05 05:43:49;;;;;;;6.30;3.07;;;29.40;8.60;;;;;;5059904;28;20481;-62
2022/08/05 05:46:15;;;;;;;6.07;3.50;;;29.00;9.20;;;;;;5065193;28;20470;-60
2022/08/05 05:48:42;;;;;;;6.20;3.73;;;28.60;9.80;;;;;;5065409;28;20468;-61
2022/08/05 05:51:09;;;;;;;7.27;3.30;;;28.30;10.10;;;;;;5061671;28;20492;-62
2022/08/05 05:53:36;;;;;;;5.70;3.03;;;28.00;10.60;;;;;;5060657;28;20503;-61
2022/08/05 05:56:02;;;;;;;9.13;3.73;;;27.80;10.60;;;;;;5055312;28;20468;-61
2022/08/05 05:58:30;;;;;;;8.33;3.73;;;27.70;10.90;;;;;;5061602;28;20492;-61
2022/08/05 06:00:57;;;;;;;8.27;4.13;;;27.50;11.30;;;;;;5062382;28;20938;-62
2022/08/05 06:03:24;;;;;;;6.83;3.33;;;27.30;11.60;;;;;;5069337;28;20473;-62
2022/08/05 06:05:51;;;;;;;9.83;4.10;;;27.20;12.00;;;;;;5064650;28;20457;-62
2022/08/05 06:08:17;;;;;;;6.50;4.00;;;27.10;12.30;;;;;;5064769;28;20481;-61
2022/08/05 06:10:44;;;;;;;10.13;4.07;;;27.00;12.40;;;;;;5069466;28;20449;-61
2022/08/05 06:13:11;;;;;;;5.40;3.40;;;26.80;12.10;;;;;;5069324;28;20481;-62
2022/08/05 06:15:39;;;;;;;7.13;3.50;;;26.80;12.40;;;;;;5065423;28;20449;-62
2022/08/05 06:18:06;;;;;;;8.43;3.93;;;26.70;12.80;;;;;;5057734;28;20464;-62
2022/08/05 06:20:33;;;;;;;7.00;3.27;;;26.70;12.90;;;;;;5060040;28;21114;-64
2022/08/05 06:22:59;;;;;;;6.30;3.10;;;26.60;13.10;;;;;;5058754;28;20493;-63
2022/08/05 06:25:26;;;;;;;10.23;4.13;;;26.60;13.20;;;;;;5065734;28;20458;-65
2022/08/05 06:27:53;;;;;;;12.67;3.80;;;26.60;13.30;;;;;;5066655;28;20508;-66
2022/08/05 06:30:20;;;;;;;7.47;3.50;;;26.50;13.30;;;;;;5058951;28;20953;-65
2022/08/05 06:32:48;;;;;;;10.10;4.10;;;26.60;13.40;;;;;;5059707;28;20977;-63
2022/08/05 06:35:15;;;;;;;5.87;3.00;;;26.80;13.10;;;;;;5062127;28;20464;-66
2022/08/05 06:37:41;;;;;;;7.93;3.60;;;28.00;12.10;;;;;;5064585;28;20449;-66
2022/08/05 06:40:10;;;;;;;6.43;3.97;;;29.00;9.80;;;;;;5061382;28;20465;-65
2022/08/05 06:42:36;;;;;;;8.97;3.80;;;29.10;9.10;;;;;;5064095;28;20521;-65
2022/08/05 06:45:04;;;;;;;7.13;3.30;;;29.10;8.80;;;;;;5058654;28;20479;-63
2022/08/05 06:47:31;;;;;;;7.80;3.60;;;29.70;8.90;;;;;;5058133;28;20481;-60
2022/08/05 06:49:59;;;;;;;11.50;3.63;;;31.80;6.20;;;;;;5062564;28;21110;-59
2022/08/05 06:52:25;;;;;;;11.60;3.30;;;34.90;2.00;;;;;;5058916;28;20457;-58
2022/08/05 06:54:53;;;;;;;9.03;3.80;;;37.30;1.00;;;;;;5061004;28;20476;-59
2022/08/05 06:57:19;;;;;;;12.80;3.67;;;37.00;1.00;;;;;;5065910;28;20741;-59
2022/08/05 06:59:46;;;;;;;11.13;4.73;;;35.90;1.00;;;;;;5060153;28;20476;-58
2022/08/05 07:02:13;;;;;;;9.63;3.57;;;34.90;1.00;;;;;;5064609;28;20473;-59
2022/08/05 07:04:40;;;;;;;6.37;3.03;;;34.30;1.00;;;;;;5062268;28;20456;-59
2022/08/05 07:07:08;;;;;;;7.03;3.30;;;34.00;1.40;;;;;;5061157;28;20508;-59
2022/08/05 07:09:35;;;;;;;7.97;3.87;;;34.00;1.90;;;;;;5061956;28;20876;-57
2022/08/05 07:12:01;;;;;;;7.17;3.53;;;33.90;1.40;;;;;;5064810;28;20457;-58
2022/08/05 07:17:12;;;;;;;6.30;3.43;;;34.80;1.00;;;;;;5057927;28;20440;-58
2022/08/05 07:19:39;;;;;;;5.33;3.00;;;36.80;1.00;;;;;;5057386;28;20449;-59
2022/08/05 07:22:07;;;;;;;10.80;3.20;;;39.60;1.00;;;;;;5057617;28;21061;-59
2022/08/05 07:24:34;;;;;;;9.57;3.57;;;42.20;1.00;;;;;;5059644;28;20488;-58
2022/08/05 07:27:01;;;;;;;6.80;3.47;;;44.60;1.00;;;;;;5055445;28;20485;-60
2022/08/05 07:29:28;;;;;;;6.57;2.83;;;46.60;1.00;;;;;;5058929;28;20465;-58
2022/08/05 07:31:54;;;;;;;5.63;2.90;;;48.00;1.00;;;;;;5059846;28;20473;-58
2022/08/05 07:34:21;;;;;;;7.60;3.07;;;49.50;1.00;;;;;;5062839;28;20489;-59
2022/08/05 07:36:48;;;;;;;8.70;3.77;;;50.60;1.00;;;;;;5067250;28;20465;-57
2022/08/05 07:39:16;;;;;;;5.97;3.37;;;51.50;1.00;;;;;;5064186;28;20461;-59
2022/08/05 07:41:43;;;;;;;4.37;2.40;;;52.30;1.00;;;;;;5065766;28;20818;-58
2022/08/05 07:44:10;;;;;;;5.13;2.73;;;52.90;1.00;;;;;;5058704;28;20485;-59
2022/08/05 07:46:37;;;;;;;7.37;2.70;;;53.60;1.00;;;;;;5057459;28;20715;-59
2022/08/05 07:49:04;;;;;;;5.30;2.70;;;53.90;1.00;;;;;;5062490;28;20495;-60
2022/08/05 07:51:35;;;;;;;4.70;2.40;;;54.20;1.00;;;;;;5068990;28;20465;-59
2022/08/05 07:54:02;;;;;;;4.87;2.30;;;54.80;1.00;;;;;;5065113;28;20507;-59
2022/08/05 07:56:30;;;;;;;7.50;2.23;;;55.30;1.00;;;;;;5066888;28;20465;-60
2022/08/05 07:58:57;;;;;;;4.97;2.40;;;55.60;1.00;;;;;;5068288;28;20861;-59
2022/08/05 08:01:26;;;;;;;3.87;2.07;;;55.90;1.00;;;;;;5068388;28;20471;-59
2022/08/05 08:03:53;;;;;;;5.00;1.90;;;56.30;1.00;;;;;;5069882;28;21119;-59
2022/08/05 08:06:20;;;;;;;5.50;1.83;;;56.70;1.00;;;;;;5066652;28;20481;-60
2022/08/05 08:08:46;;;;;;;5.60;2.47;;;57.40;1.00;;;;;;5061064;28;20495;-60
2022/08/05 08:11:14;;;;;;;4.57;2.30;;;57.90;1.00;;;;;;5060766;28;20700;-61
2022/08/05 08:13:42;;;;;;;4.85;1.83;;;58.30;1.00;;;;;;5058312;28;20214;-61
2022/08/05 08:16:09;;;;;;;3.58;1.83;;;58.70;1.00;;;;;;5065802;28;20198;-66
2022/08/05 08:18:36;;;;;;;4.88;2.10;;;59.10;1.00;;;;;;5066617;28;20187;-59
2022/08/05 08:21:06;;;;;;;4.63;1.73;;;59.50;1.00;;;;;;5064187;28;20217;-65
2022/08/05 08:23:32;;;;;;;3.60;1.70;;;60.00;1.00;;;;;;5069077;28;20218;-65
2022/08/05 08:25:59;;;;;;;3.42;1.88;;;60.40;1.00;;;;;;5064601;28;20207;-59
2022/08/05 08:28:26;;;;;;;3.30;1.75;;;59.60;1.00;;;;;;5066714;28;20209;-59
2022/08/05 08:30:54;;;;;;;3.75;1.50;;;58.90;1.00;;;;;;5063626;28;20218;-60
2022/08/05 08:33:21;;;;;;;4.72;2.00;;;59.40;1.00;;;;;;5065314;28;20234;-59
2022/08/05 08:35:47;;;;;;;6.13;1.30;;;59.90;1.00;;;;;;5058698;28;20209;-61
2022/08/05 08:38:15;;;;;;;5.80;1.80;;;60.50;1.00;;;;;;5063740;28;20201;-59
2022/08/05 08:40:42;;;;;;;3.55;1.20;;;60.40;1.00;;;;;;5063338;28;20693;-59
2022/08/05 08:43:13;;;;;;;5.32;1.85;;;60.10;1.00;;;;;;5062131;28;20230;-59
2022/08/05 08:45:40;;;;;;;4.55;1.50;;;60.40;1.00;;;;;;5069714;28;20190;-59
2022/08/05 08:48:11;;;;;;;3.10;1.65;;;60.50;1.00;;;;;;5067635;28;20752;-60
2022/08/05 08:50:40;;;;;;;4.28;2.08;;;60.80;1.00;;;;;;5065630;28;20214;-57
2022/08/05 08:53:09;;;;;;;7.28;1.77;;;61.10;1.00;;;;;;5062722;28;20218;-60
2022/08/05 08:55:36;;;;;;;3.38;1.80;;;61.40;1.00;;;;;;5062954;28;20198;-61
2022/08/05 08:58:03;;;;;;;6.00;1.80;;;61.60;1.00;;;;;;5068420;28;20194;-60
2022/08/05 09:00:30;;;;;;;4.32;1.90;;;61.60;1.00;;;;;;5066711;28;20210;-59
2022/08/05 09:02:57;;;;;;;3.08;1.63;;;61.60;1.00;;;;;;5069953;28;20698;-59
2022/08/05 09:05:25;;;;;;;3.67;1.50;;;61.20;1.00;;;;;;5068371;28;20191;-59
2022/08/05 09:07:53;;;;;;;4.30;1.58;;;61.20;1.00;;;;;;5060358;28;20221;-59
2022/08/05 09:10:21;;;;;;;4.97;1.75;;;61.10;1.00;;;;;;5072249;28;20243;-60
2022/08/05 09:12:48;;;;;;;3.00;1.65;;;60.90;1.00;;;;;;5064329;28;20217;-59
2022/08/05 09:15:15;;;;;;;4.28;2.10;;;60.60;1.00;;;;;;5060006;28;20225;-60
2022/08/05 09:17:42;;;;;;;4.50;1.98;;;60.60;1.00;;;;;;5062984;28;20818;-61
2022/08/05 09:20:10;;;;;;;4.57;1.80;;;60.20;1.00;;;;;;5064933;28;20213;-62
2022/08/05 09:23:10;;;;;;;6.80;1.98;;;60.00;1.00;;;;;;5066391;28;20241;-64
2022/08/05 09:25:39;;;;;;;3.40;2.08;;;59.70;1.00;;;;;;5061377;28;20307;-62
2022/08/05 09:28:17;;;;;;;4.50;2.10;;;59.70;1.00;;;;;;5063968;28;20268;-59
2022/08/05 09:30:52;;;;;;;3.60;1.80;;;59.90;1.00;;;;;;5064908;28;20218;-63
2022/08/05 09:33:18;;;;;;;4.00;1.67;;;60.00;1.00;;;;;;5070067;28;20749;-64
2022/08/05 09:35:55;;;;;;;4.00;1.90;;;60.10;1.00;;;;;;5058501;28;20186;-61
2022/08/05 09:38:23;;;;;;;7.28;2.30;;;60.30;1.00;;;;;;5066016;28;20195;-63
2022/08/05 09:40:50;;;;;;;4.82;2.05;;;60.50;1.00;;;;;;5060512;28;20199;-62
2022/08/05 09:43:28;;;;;;;4.00;1.90;;;60.40;1.00;;;;;;5066465;28;20223;-65
2022/08/05 09:45:55;;;;;;;3.17;1.85;;;60.60;1.00;;;;;;5069417;28;20190;-64
2022/08/05 09:48:25;;;;;;;3.90;1.92;;;60.50;1.00;;;;;;5063794;28;20222;-67
2022/08/05 09:50:53;;;;;;;6.25;1.90;;;60.80;1.00;;;;;;5060380;28;20203;-60
2022/08/05 09:53:20;;;;;;;5.03;2.10;;;60.70;1.00;;;;;;5063807;28;20229;-59
2022/08/05 09:55:51;;;;;;;3.80;1.60;;;60.90;1.00;;;;;;5062706;28;20569;-60
2022/08/05 09:58:18;;;;;;;4.53;1.70;;;60.20;1.00;;;;;;5064218;28;20207;-60
2022/08/05 10:00:57;;;;;;;3.38;1.80;;;59.30;1.00;;;;;;5069471;28;20230;-60
2022/08/05 10:03:25;;;;;;;4.50;1.77;;;59.40;1.00;;;;;;5059234;28;20210;-60
2022/08/05 10:06:06;;;;;;;4.13;2.20;;;59.90;1.00;;;;;;5058070;28;20186;-60
2022/08/05 10:08:33;;;;;;;5.25;1.77;;;60.00;1.00;;;;;;5059129;28;20225;-60
2022/08/05 10:11:03;;;;;;;4.82;2.08;;;60.10;1.00;;;;;;5060473;28;20198;-60
2022/08/05 10:13:32;;;;;;;4.05;1.75;;;59.90;1.00;;;;;;5058300;28;20323;-61
2022/08/05 10:15:59;;;;;;;5.95;2.05;;;58.60;1.00;;;;;;5058993;28;20198;-63
2022/08/05 10:18:30;;;;;;;3.40;1.58;;;56.50;1.00;;;;;;5056816;28;20190;-65
2022/08/05 10:20:59;;;;;;;6.03;1.60;;;54.60;1.00;;;;;;5057574;28;20268;-63
2022/08/05 10:23:28;;;;;;;4.30;1.83;;;52.60;1.00;;;;;;5057733;28;20249;-64
2022/08/05 10:25:55;;;;;;;4.07;1.90;;;51.00;1.00;;;;;;5060186;28;21157;-63
2022/08/05 10:28:23;;;;;;;3.63;2.30;;;49.50;1.00;;;;;;5056203;28;20484;-61
2022/08/05 10:30:51;;;;;;;3.73;1.90;;;48.30;1.00;;;;;;5058063;28;20565;-60
2022/08/05 10:33:18;;;;;;;7.20;2.40;;;47.20;1.00;;;;;;5058927;28;20523;-61
2022/08/05 10:35:45;;;;;;;5.47;2.03;;;46.00;1.00;;;;;;5060000;28;20457;-63
2022/08/05 10:38:13;;;;;;;4.30;2.20;;;45.20;1.00;;;;;;5061188;28;21160;-63
2022/08/05 10:40:47;;;;;;;4.90;2.20;;;44.50;1.00;;;;;;5067913;28;20457;-65
2022/08/05 10:43:23;;;;;;;4.43;2.00;;;43.90;1.00;;;;;;5063417;28;20480;-67
2022/08/05 10:45:59;;;;;;;4.07;1.90;;;43.20;1.00;;;;;;5066759;28;20882;-66
2022/08/05 10:48:31;;;;;;;8.23;2.50;;;42.40;1.00;;;;;;5065787;28;20559;-65
2022/08/05 10:50:59;;;;;;;3.70;2.00;;;41.70;1.00;;;;;;5067934;28;20514;-65
2022/08/05 10:53:41;;;;;;;4.00;2.23;;;41.30;1.00;;;;;;5063789;28;20484;-64
2022/08/05 10:56:12;;;;;;;6.27;2.40;;;41.40;1.00;;;;;;5065765;28;20565;-65
2022/08/05 10:58:48;;;;;;;4.13;2.27;;;41.40;1.00;;;;;;5065588;28;20461;-66
2022/08/05 11:01:19;;;;;;;4.13;2.20;;;41.50;1.00;;;;;;5070788;28;20817;-60
2022/08/05 11:04:01;;;;;;;7.90;2.60;;;41.40;1.00;;;;;;5067998;28;20569;-60
2022/08/05 11:06:29;;;;;;;4.87;2.20;;;40.90;1.00;;;;;;5065442;28;20477;-61
2022/08/05 11:09:14;;;;;;;4.97;2.67;;;40.80;1.00;;;;;;5074866;28;20477;-61
2022/08/05 11:11:43;;;;;;;5.87;2.57;;;40.60;1.00;;;;;;5068730;28;20461;-59
2022/08/05 11:14:11;;;;;;;8.60;2.80;;;40.60;1.00;;;;;;5062309;28;21075;-60
2022/08/05 11:16:39;;;;;;;5.60;2.50;;;40.40;1.00;;;;;;5061422;28;21294;-61
2022/08/05 11:19:29;;;;;;;3.97;1.90;;;40.10;1.00;;;;;;5058410;28;20460;-60
2022/08/05 11:21:56;;;;;;;4.00;2.33;;;39.80;1.00;;;;;;5062176;28;20449;-60
2022/08/05 11:24:23;;;;;;;3.50;2.13;;;39.70;1.00;;;;;;5063374;28;20484;-61
2022/08/05 11:27:12;;;;;;;7.63;2.30;;;39.60;1.00;;;;;;5069302;28;20472;-59
2022/08/05 11:29:40;;;;;;;4.50;2.40;;;39.40;1.00;;;;;;5068501;28;21101;-59
2022/08/05 11:32:27;;;;;;;5.93;2.47;;;39.50;1.00;;;;;;5061950;28;20477;-60
2022/08/05 11:34:56;;;;;;;5.30;2.47;;;39.40;1.00;;;;;;5064751;28;21397;-60
2022/08/05 11:38:05;;;;;;;5.20;2.30;;;39.10;1.00;;;;;;5065119;28;20469;-61
2022/08/05 11:40:58;;;;;;;4.90;2.47;;;38.70;1.00;;;;;;5061748;28;20492;-60
2022/08/05 11:43:24;;;;;;;5.03;2.53;;;38.40;1.00;;;;;;5063142;28;20496;-59
2022/08/05 11:45:53;;;;;;;5.63;2.33;;;38.00;1.00;;;;;;5067386;28;20457;-59
2022/08/05 11:48:20;;;;;;;3.90;2.20;;;37.70;1.00;;;;;;5062413;28;20843;-59
2022/08/05 11:50:48;;;;;;;4.80;2.30;;;37.50;1.00;;;;;;5064947;28;20469;-60
2022/08/05 11:53:16;;;;;;;5.13;2.37;;;37.30;1.00;;;;;;5057168;28;20473;-60
2022/08/05 11:55:54;;;;;;;6.93;2.50;;;37.20;1.00;;;;;;5062451;28;20552;-61
2022/08/05 11:58:30;;;;;;;5.93;2.77;;;37.00;1.00;;;;;;5063745;28;20468;-59
2022/08/05 12:01:07;;;;;;;6.40;2.60;;;36.70;1.00;;;;;;5063010;28;20500;-62
2022/08/05 12:03:44;;;;;;;5.80;2.53;;;36.40;1.00;;;;;;5066831;28;20468;-60
2022/08/05 12:06:12;;;;;;;5.30;2.50;;;36.10;1.00;;;;;;5064359;28;21178;-61
2022/08/05 12:08:43;;;;;;;5.80;2.43;;;36.00;1.00;;;;;;5067158;28;20477;-60
2022/08/05 12:11:16;;;;;;;5.73;2.70;;;35.90;1.00;;;;;;5067403;28;20522;-61
2022/08/05 12:13:53;;;;;;;5.67;2.40;;;35.80;1.00;;;;;;5065386;28;20489;-62
2022/08/05 12:16:23;;;;;;;7.03;2.40;;;35.50;1.00;;;;;;5065258;28;20459;-59
2022/08/05 12:18:50;;;;;;;5.03;2.60;;;35.10;1.00;;;;;;5065410;28;20457;-60
2022/08/05 12:21:19;;;;;;;6.37;3.00;;;35.00;1.00;;;;;;5067158;28;20465;-60
2022/08/05 12:23:53;;;;;;;5.10;2.20;;;34.90;1.00;;;;;;5060156;28;20477;-60
2022/08/05 12:26:20;;;;;;;4.33;2.20;;;34.90;1.00;;;;;;5060125;28;20553;-59
2022/08/05 12:28:47;;;;;;;5.97;2.63;;;35.00;1.00;;;;;;5062776;28;21031;-61
2022/08/05 12:31:15;;;;;;;4.17;2.37;;;35.00;1.00;;;;;;5057793;28;20477;-60
2022/08/05 12:33:44;;;;;;;5.07;2.60;;;35.00;1.00;;;;;;5063377;28;20484;-60
2022/08/05 12:36:11;;;;;;;4.20;2.27;;;35.10;1.00;;;;;;5061531;28;20460;-60
2022/08/05 12:38:39;;;;;;;5.03;2.30;;;35.20;1.00;;;;;;5064047;28;21004;-60
2022/08/05 12:41:08;;;;;;;5.50;2.60;;;35.40;1.00;;;;;;5067310;28;20461;-61
2022/08/05 12:43:47;;;;;;;8.57;2.50;;;35.50;1.00;;;;;;5066748;28;20482;-60
2022/08/05 12:46:21;;;;;;;5.97;2.80;;;35.60;1.00;;;;;;5062947;28;20460;-60
2022/08/05 12:48:57;;;;;;;4.60;2.70;;;35.60;1.00;;;;;;5067441;28;20476;-61
2022/08/05 12:51:23;;;;;;;4.30;2.30;;;35.60;1.00;;;;;;5063871;28;20472;-60
2022/08/05 12:53:50;;;;;;;5.07;2.60;;;35.50;1.00;;;;;;5069629;28;20873;-61
2022/08/05 12:56:20;;;;;;;6.17;2.67;;;35.30;1.00;;;;;;5064029;28;20472;-60
2022/08/05 12:59:10;;;;;;;5.70;2.80;;;35.10;1.00;;;;;;5065106;28;20464;-60
2022/08/05 13:01:36;;;;;;;7.10;2.67;;;34.90;1.00;;;;;;5067171;28;20465;-60
2022/08/05 13:04:05;;;;;;;4.50;3.00;;;34.60;1.00;;;;;;5065504;28;20479;-60